createdAt,value
2023-05-19T00:00:16.892Z,101422.37
2023-05-19T00:02:49.870Z,101421.32
2023-05-19T00:05:03.708Z,101420.08
2023-05-19T00:07:21.962Z,101418.23
2023-05-19T00:09:34.797Z,101421.80
2023-05-19T00:11:47.636Z,101422.78
2023-05-19T00:14:00.689Z,101427.59
2023-05-19T00:16:13.935Z,101426.86
2023-05-19T00:18:26.665Z,101431.06
2023-05-19T00:20:39.937Z,101431.91
2023-05-19T00:22:52.550Z,101430.41
2023-05-19T00:25:06.268Z,101429.94
2023-05-19T00:27:18.838Z,101431.86
2023-05-19T00:29:31.425Z,101436.94
2023-05-19T00:31:44.265Z,101439.80
2023-05-19T00:33:57.158Z,101437.07
2023-05-19T00:36:09.858Z,101439.43
2023-05-19T00:38:22.495Z,101438.60
2023-05-19T00:40:36.472Z,101438.11
2023-05-19T00:42:49.198Z,101439.02
2023-05-19T00:45:02.049Z,101440.79
2023-05-19T00:47:14.937Z,101439.80
2023-05-19T00:49:27.536Z,101440.73
2023-05-19T00:51:41.069Z,101439.04
2023-05-19T00:53:53.889Z,101438.40
2023-05-19T00:56:06.803Z,101440.36
2023-05-19T00:58:19.553Z,101442.33
2023-05-19T01:00:32.664Z,101440.66
2023-05-19T01:02:45.726Z,101444.52
2023-05-19T01:04:59.020Z,101440.77
2023-05-19T01:07:12.527Z,101442.70
2023-05-19T01:09:25.212Z,101440.80
2023-05-19T01:11:37.759Z,101439.42
2023-05-19T01:13:51.153Z,101438.58
2023-05-19T01:16:13.112Z,101439.52
2023-05-19T01:18:32.360Z,101439.37
2023-05-19T01:20:52.479Z,101439.03
2023-05-19T01:23:21.456Z,101436.30
2023-05-19T01:26:00.948Z,101434.33
2023-05-19T01:28:19.710Z,101434.09
2023-05-19T01:30:43.612Z,101438.07
2023-05-19T01:33:02.762Z,101441.15
2023-05-19T01:35:16.681Z,101442.27
2023-05-19T01:37:30.270Z,101443.27
2023-05-19T01:39:44.620Z,101442.31
2023-05-19T01:41:58.197Z,101446.02
2023-05-19T01:44:11.765Z,101443.67
2023-05-19T01:46:24.817Z,101446.55
2023-05-19T01:48:38.587Z,101447.86
2023-05-19T01:50:51.523Z,101447.27
2023-05-19T01:53:04.384Z,101446.55
2023-05-19T01:55:17.236Z,101442.75
2023-05-19T01:57:48.635Z,101444.45
2023-05-19T02:00:09.294Z,101443.72
2023-05-19T02:02:51.193Z,101438.62
2023-05-19T02:05:13.499Z,101442.27
2023-05-19T02:07:35.675Z,101442.02
2023-05-19T02:09:59.320Z,101444.44
2023-05-19T02:12:37.687Z,101440.06
2023-05-19T02:14:59.794Z,101439.27
2023-05-19T02:17:15.792Z,101439.52
2023-05-19T02:19:33.474Z,101441.17
2023-05-19T02:21:46.036Z,101441.64
2023-05-19T02:23:58.659Z,101439.91
2023-05-19T02:26:11.275Z,101441.74
2023-05-19T02:28:27.724Z,101441.34
2023-05-19T02:30:40.265Z,101437.01
2023-05-19T02:32:54.213Z,101435.44
2023-05-19T02:35:07.198Z,101434.33
2023-05-19T02:37:23.786Z,101426.43
2023-05-19T02:39:36.381Z,101427.52
2023-05-19T02:41:49.005Z,101424.92
2023-05-19T02:44:01.581Z,101429.39
2023-05-19T02:46:14.167Z,101426.59
2023-05-19T02:48:26.887Z,101427.64
2023-05-19T02:50:39.654Z,101428.27
2023-05-19T02:52:53.858Z,101430.94
2023-05-19T02:55:06.726Z,101428.23
2023-05-19T02:57:19.487Z,101430.94
2023-05-19T02:59:32.188Z,101428.84
2023-05-19T03:01:44.931Z,101423.75
2023-05-19T03:03:57.622Z,101418.14
2023-05-19T03:06:10.220Z,101417.42
2023-05-19T03:08:22.834Z,101418.41
2023-05-19T03:10:36.300Z,101417.53
2023-05-19T03:12:48.952Z,101416.69
2023-05-19T03:15:01.718Z,101418.16
2023-05-19T03:17:14.340Z,101421.79
2023-05-19T03:19:27.595Z,101428.19
2023-05-19T03:21:40.613Z,101423.81
2023-05-19T03:23:54.631Z,101423.91
2023-05-19T03:26:07.199Z,101420.60
2023-05-19T03:28:20.028Z,101419.65
2023-05-19T03:30:32.938Z,101418.77
2023-05-19T03:32:45.808Z,101423.46
2023-05-19T03:34:58.972Z,101415.09
2023-05-19T03:37:12.780Z,101414.13
2023-05-19T03:39:25.431Z,101412.13
2023-05-19T03:41:38.028Z,101415.10
2023-05-19T03:43:50.654Z,101416.04
2023-05-19T03:46:03.424Z,101417.66
2023-05-19T03:48:16.547Z,101415.27
2023-05-19T03:50:31.632Z,101417.06
2023-05-19T03:52:46.457Z,101417.80
2023-05-19T03:54:59.027Z,101417.69
2023-05-19T03:57:11.871Z,101417.77
2023-05-19T03:59:24.667Z,101418.70
2023-05-19T04:01:37.313Z,101414.98
2023-05-19T04:03:49.882Z,101414.77
2023-05-19T04:06:03.089Z,101415.00
2023-05-19T04:08:15.849Z,101415.02
2023-05-19T04:10:28.570Z,101417.41
2023-05-19T04:12:41.209Z,101419.26
2023-05-19T04:14:53.871Z,101415.89
2023-05-19T04:17:06.691Z,101417.16
2023-05-19T04:19:19.530Z,101419.92
2023-05-19T04:21:32.109Z,101420.96
2023-05-19T04:23:44.763Z,101421.41
2023-05-19T04:25:58.141Z,101421.40
2023-05-19T04:28:10.728Z,101423.05
2023-05-19T04:30:24.482Z,101422.98
2023-05-19T04:32:37.630Z,101417.08
2023-05-19T04:34:50.338Z,101417.27
2023-05-19T04:37:02.997Z,101415.84
2023-05-19T04:39:15.696Z,101419.24
2023-05-19T04:41:28.715Z,101418.52
2023-05-19T04:43:44.492Z,101417.20
2023-05-19T04:45:58.238Z,101414.63
2023-05-19T04:48:12.201Z,101418.11
2023-05-19T04:50:25.233Z,101418.30
2023-05-19T04:52:37.923Z,101418.05
2023-05-19T04:54:50.619Z,101421.70
2023-05-19T04:57:03.932Z,101428.26
2023-05-19T04:59:16.545Z,101429.64
2023-05-19T05:01:31.241Z,101429.59
2023-05-19T05:03:44.546Z,101430.66
2023-05-19T05:05:58.659Z,101433.21
2023-05-19T05:08:11.408Z,101432.13
2023-05-19T05:10:24.055Z,101434.73
2023-05-19T05:12:36.937Z,101433.52
2023-05-19T05:14:49.787Z,101434.45
2023-05-19T05:17:03.020Z,101436.13
2023-05-19T05:19:16.012Z,101441.73
2023-05-19T05:21:29.501Z,101441.71
2023-05-19T05:23:42.351Z,101439.13
2023-05-19T05:25:55.230Z,101439.69
2023-05-19T05:28:07.786Z,101439.67
2023-05-19T05:30:20.671Z,101441.08
2023-05-19T05:32:33.438Z,101441.92
2023-05-19T05:34:46.321Z,101438.52
2023-05-19T05:36:58.962Z,101442.04
2023-05-19T05:39:11.571Z,101441.52
2023-05-19T05:41:24.215Z,101440.34
2023-05-19T05:43:36.986Z,101440.81
2023-05-19T05:45:49.712Z,101439.83
2023-05-19T05:48:02.559Z,101439.50
2023-05-19T05:50:15.714Z,101432.68
2023-05-19T05:52:30.875Z,101429.70
2023-05-19T05:54:43.792Z,101431.47
2023-05-19T05:56:56.937Z,101432.86
2023-05-19T05:59:09.514Z,101429.90
2023-05-19T06:01:23.998Z,101428.14
2023-05-19T06:03:46.192Z,101429.29
2023-05-19T06:05:58.911Z,101429.98
2023-05-19T06:08:11.612Z,101430.83
2023-05-19T06:10:24.218Z,101432.27
2023-05-19T06:12:40.569Z,101438.48
2023-05-19T06:14:53.319Z,101440.73
2023-05-19T06:17:08.140Z,101443.40
2023-05-19T06:19:21.465Z,101443.56
2023-05-19T06:21:34.170Z,101442.51
2023-05-19T06:23:46.761Z,101448.58
2023-05-19T06:25:59.404Z,101449.22
2023-05-19T06:28:12.042Z,101452.39
2023-05-19T06:30:24.795Z,101453.19
2023-05-19T06:32:37.370Z,101454.67
2023-05-19T06:34:54.652Z,101449.48
2023-05-19T06:37:07.314Z,101453.36
2023-05-19T06:39:19.941Z,101450.83
2023-05-19T06:41:32.547Z,101454.48
2023-05-19T06:43:45.122Z,101452.96
2023-05-19T06:45:57.779Z,101454.56
2023-05-19T06:48:10.499Z,101452.27
2023-05-19T06:50:23.278Z,101449.71
2023-05-19T06:52:36.202Z,101451.67
2023-05-19T06:54:49.438Z,101452.84
2023-05-19T06:57:02.687Z,101452.27
2023-05-19T06:59:16.174Z,101454.09
2023-05-19T07:01:30.230Z,101456.15
2023-05-19T07:03:43.184Z,101456.08
2023-05-19T07:05:56.154Z,101457.85
2023-05-19T07:08:08.818Z,101460.29
2023-05-19T07:10:21.974Z,101461.48
2023-05-19T07:12:34.572Z,101466.85
2023-05-19T07:14:47.180Z,101466.91
2023-05-19T07:16:59.687Z,101467.10
2023-05-19T07:19:12.332Z,101467.94
2023-05-19T07:21:24.967Z,101468.02
2023-05-19T07:23:37.578Z,101462.09
2023-05-19T07:25:50.127Z,101467.44
2023-05-19T07:28:02.822Z,101469.61
2023-05-19T07:30:15.487Z,101467.76
2023-05-19T07:32:28.094Z,101468.89
2023-05-19T07:34:40.876Z,101470.48
2023-05-19T07:36:53.611Z,101473.00
2023-05-19T07:39:06.738Z,101468.98
2023-05-19T07:41:19.317Z,101467.91
2023-05-19T07:43:31.918Z,101458.80
2023-05-19T07:45:44.521Z,101460.21
2023-05-19T07:47:57.226Z,101459.55
2023-05-19T07:50:09.957Z,101459.98
2023-05-19T07:52:22.491Z,101461.98
2023-05-19T07:54:35.086Z,101463.06
2023-05-19T07:56:48.228Z,101465.58
2023-05-19T07:59:00.824Z,101464.94
2023-05-19T08:01:13.423Z,101463.23
2023-05-19T08:03:26.845Z,101463.05
2023-05-19T08:05:39.562Z,101459.70
2023-05-19T08:07:52.195Z,101461.45
2023-05-19T08:10:05.220Z,101462.20
2023-05-19T08:12:17.814Z,101460.96
2023-05-19T08:14:31.251Z,101464.02
2023-05-19T08:16:45.706Z,101463.02
2023-05-19T08:19:01.059Z,101458.73
2023-05-19T08:21:13.724Z,101462.20
2023-05-19T08:23:26.431Z,101465.11
2023-05-19T08:25:39.069Z,101465.21
2023-05-19T08:27:52.087Z,101462.17
2023-05-19T08:30:05.157Z,101458.40
2023-05-19T08:32:17.970Z,101461.81
2023-05-19T08:34:30.990Z,101462.92
2023-05-19T08:36:45.235Z,101466.08
2023-05-19T08:38:57.793Z,101460.86
2023-05-19T08:41:10.662Z,101463.00
2023-05-19T08:43:23.225Z,101460.95
2023-05-19T08:45:36.030Z,101461.48
2023-05-19T08:47:50.934Z,101461.74
2023-05-19T08:50:10.733Z,101458.21
2023-05-19T08:52:52.550Z,101457.02
2023-05-19T08:55:13.045Z,101452.02
2023-05-19T08:57:25.780Z,101455.64
2023-05-19T08:59:39.824Z,101452.33
2023-05-19T09:01:54.706Z,101452.52
2023-05-19T09:04:07.581Z,101454.73
2023-05-19T09:06:21.316Z,101449.95
2023-05-19T09:08:34.857Z,101451.27
2023-05-19T09:10:47.422Z,101450.66
2023-05-19T09:13:00.088Z,101448.08
2023-05-19T09:15:13.403Z,101451.64
2023-05-19T09:17:26.067Z,101450.55
2023-05-19T09:19:43.236Z,101449.71
2023-05-19T09:22:01.090Z,101446.48
2023-05-19T09:24:13.652Z,101446.95
2023-05-19T09:26:37.331Z,101444.47
2023-05-19T09:28:49.937Z,101442.42
2023-05-19T09:31:06.126Z,101444.88
2023-05-19T09:33:19.975Z,101442.02
2023-05-19T09:35:34.685Z,101441.47
2023-05-19T09:37:47.432Z,101440.61
2023-05-19T09:40:00.378Z,101439.40
2023-05-19T09:42:13.919Z,101436.95
2023-05-19T09:44:30.499Z,101437.55
2023-05-19T09:46:52.893Z,101435.02
2023-05-19T09:49:09.708Z,101433.54
2023-05-19T09:51:22.398Z,101428.02
2023-05-19T09:53:35.333Z,101430.56
2023-05-19T09:55:48.696Z,101428.30
2023-05-19T09:58:04.154Z,101428.39
2023-05-19T10:00:18.460Z,101423.98
2023-05-19T10:02:32.230Z,101420.41
2023-05-19T10:04:45.122Z,101420.46
2023-05-19T10:07:01.462Z,101413.17
2023-05-19T10:09:15.929Z,101412.06
2023-05-19T10:11:30.570Z,101408.41
2023-05-19T10:13:45.716Z,101404.92
2023-05-19T10:15:59.612Z,101405.17
2023-05-19T10:18:17.510Z,101407.91
2023-05-19T10:20:31.621Z,101407.41
2023-05-19T10:22:46.254Z,101405.90
2023-05-19T10:24:58.983Z,101403.29
2023-05-19T10:27:14.924Z,101405.77
2023-05-19T10:29:31.687Z,101404.20
2023-05-19T10:31:46.860Z,101398.23
2023-05-19T10:34:37.437Z,101394.00
2023-05-19T10:37:03.510Z,101394.48
2023-05-19T10:39:28.007Z,101396.44
2023-05-19T10:41:59.950Z,101398.64
2023-05-19T10:44:28.992Z,101396.07
2023-05-19T10:46:43.055Z,101400.50
2023-05-19T10:48:55.930Z,101403.34
2023-05-19T10:51:12.170Z,101401.86
2023-05-19T10:53:31.346Z,101400.74
2023-05-19T10:55:55.917Z,101402.46
2023-05-19T10:58:08.592Z,101404.20
2023-05-19T11:00:28.784Z,101407.29
2023-05-19T11:02:43.849Z,101405.65
2023-05-19T11:05:18.210Z,101404.88
2023-05-19T11:07:30.906Z,101407.42
2023-05-19T11:09:43.668Z,101407.14
2023-05-19T11:11:57.089Z,101405.46
2023-05-19T11:14:11.560Z,101401.65
2023-05-19T11:16:32.499Z,101396.05
2023-05-19T11:18:48.996Z,101396.92
2023-05-19T11:21:04.637Z,101395.77
2023-05-19T11:23:20.402Z,101396.30
2023-05-19T11:25:47.470Z,101396.09
2023-05-19T11:28:00.196Z,101396.12
2023-05-19T11:30:14.969Z,101397.32
2023-05-19T11:32:30.519Z,101394.14
2023-05-19T11:34:44.524Z,101394.92
2023-05-19T11:36:57.605Z,101394.77
2023-05-19T11:39:11.273Z,101392.34
2023-05-19T11:41:23.878Z,101391.83
2023-05-19T11:43:36.547Z,101392.32
2023-05-19T11:45:49.392Z,101397.64
2023-05-19T11:48:05.440Z,101397.30
2023-05-19T11:50:18.689Z,101404.89
2023-05-19T11:52:31.632Z,101403.16
2023-05-19T11:54:48.592Z,101404.35
2023-05-19T11:57:02.789Z,101404.03
2023-05-19T11:59:15.539Z,101403.37
2023-05-19T12:01:28.522Z,101405.65
2023-05-19T12:03:41.196Z,101403.89
2023-05-19T12:05:54.441Z,101402.64
2023-05-19T12:08:07.706Z,101402.42
2023-05-19T12:10:24.474Z,101403.02
2023-05-19T12:12:37.860Z,101401.42
2023-05-19T12:14:51.646Z,101399.20
2023-05-19T12:17:12.717Z,101397.52
2023-05-19T12:19:25.996Z,101394.83
2023-05-19T12:21:39.254Z,101392.58
2023-05-19T12:23:52.360Z,101394.23
2023-05-19T12:26:05.182Z,101396.50
2023-05-19T12:28:19.376Z,101394.11
2023-05-19T12:30:33.200Z,101394.02
2023-05-19T12:32:46.838Z,101395.31
2023-05-19T12:35:02.141Z,101398.81
2023-05-19T12:37:14.822Z,101400.51
2023-05-19T12:39:27.469Z,101399.65
2023-05-19T12:41:40.084Z,101405.35
2023-05-19T12:43:54.545Z,101401.54
2023-05-19T12:46:11.728Z,101402.75
2023-05-19T12:48:24.398Z,101401.11
2023-05-19T12:50:37.789Z,101401.69
2023-05-19T12:52:53.698Z,101404.77
2023-05-19T12:55:07.786Z,101404.78
2023-05-19T12:57:20.983Z,101399.61
2023-05-19T12:59:38.760Z,101400.28
2023-05-19T13:01:57.729Z,101403.30
2023-05-19T13:04:10.606Z,101398.21
2023-05-19T13:06:23.516Z,101397.77
2023-05-19T13:08:37.025Z,101397.48
2023-05-19T13:10:50.145Z,101393.22
2023-05-19T13:13:03.425Z,101393.73
2023-05-19T13:15:16.019Z,101390.19
2023-05-19T13:17:28.683Z,101396.09
2023-05-19T13:19:41.348Z,101394.80
2023-05-19T13:21:54.343Z,101395.23
2023-05-19T13:24:07.086Z,101393.20
2023-05-19T13:26:19.677Z,101390.51
2023-05-19T13:28:32.317Z,101390.17
2023-05-19T13:30:45.369Z,101389.84
2023-05-19T13:32:58.019Z,101391.92
2023-05-19T13:35:11.759Z,101387.70
2023-05-19T13:37:24.826Z,101390.63
2023-05-19T13:39:37.632Z,101388.56
2023-05-19T13:41:50.525Z,101391.59
2023-05-19T13:44:03.132Z,101390.35
2023-05-19T13:46:15.716Z,101388.66
2023-05-19T13:48:28.299Z,101390.18
2023-05-19T13:50:40.882Z,101388.14
2023-05-19T13:52:53.884Z,101386.33
2023-05-19T13:55:07.649Z,101388.25
2023-05-19T13:57:20.300Z,101388.56
2023-05-19T13:59:35.136Z,101390.42
2023-05-19T14:01:49.901Z,101392.52
2023-05-19T14:04:02.792Z,101390.05
2023-05-19T14:06:15.466Z,101388.95
2023-05-19T14:08:28.132Z,101385.39
2023-05-19T14:10:42.123Z,101387.73
2023-05-19T14:13:25.776Z,101381.30
2023-05-19T14:15:27.424Z,101381.48
2023-05-19T14:17:40.087Z,101382.90
2023-05-19T14:19:52.726Z,101380.59
2023-05-19T14:22:05.556Z,101383.45
2023-05-19T14:24:18.267Z,101386.39
2023-05-19T14:26:30.887Z,101382.05
2023-05-19T14:28:43.674Z,101380.80
2023-05-19T14:30:56.554Z,101381.91
2023-05-19T14:33:09.298Z,101375.42
2023-05-19T14:35:22.642Z,101377.73
2023-05-19T14:37:35.208Z,101376.45
2023-05-19T14:39:47.843Z,101375.39
2023-05-19T14:42:00.860Z,101375.53
2023-05-19T14:44:13.538Z,101374.89
2023-05-19T14:46:26.155Z,101371.59
2023-05-19T14:48:38.733Z,101375.50
2023-05-19T14:50:51.522Z,101370.59
2023-05-19T14:53:04.149Z,101368.41
2023-05-19T14:55:16.897Z,101369.41
2023-05-19T14:57:29.438Z,101373.39
2023-05-19T14:59:42.045Z,101372.30
2023-05-19T15:01:54.626Z,101371.41
2023-05-19T15:04:07.367Z,101368.98
2023-05-19T15:06:19.937Z,101371.23
2023-05-19T15:08:32.513Z,101372.00
2023-05-19T15:10:48.776Z,101374.36
2023-05-19T15:13:01.676Z,101372.68
2023-05-19T15:15:16.063Z,101374.61
2023-05-19T15:17:28.722Z,101372.02
2023-05-19T15:19:42.763Z,101375.40
2023-05-19T15:21:55.332Z,101370.54
2023-05-19T15:24:07.895Z,101369.58
2023-05-19T15:26:20.936Z,101366.56
2023-05-19T15:28:34.175Z,101367.02
2023-05-19T15:30:46.812Z,101364.67
2023-05-19T15:32:59.616Z,101360.89
2023-05-19T15:35:12.328Z,101359.99
2023-05-19T15:37:24.995Z,101359.65
2023-05-19T15:39:37.629Z,101358.21
2023-05-19T15:41:51.270Z,101353.02
2023-05-19T15:44:04.151Z,101352.50
2023-05-19T15:46:19.126Z,101353.17
2023-05-19T15:48:32.346Z,101352.88
2023-05-19T15:50:45.058Z,101351.05
2023-05-19T15:52:57.786Z,101350.36
2023-05-19T15:55:10.337Z,101351.02
2023-05-19T15:57:22.979Z,101349.23
2023-05-19T15:59:35.676Z,101351.00
2023-05-19T16:01:49.108Z,101352.33
2023-05-19T16:04:03.920Z,101350.45
2023-05-19T16:06:17.693Z,101350.84
2023-05-19T16:08:30.464Z,101350.73
2023-05-19T16:10:43.080Z,101351.20
2023-05-19T16:12:55.760Z,101353.18
2023-05-19T16:15:08.824Z,101353.60
2023-05-19T16:17:21.728Z,101353.63
2023-05-19T16:19:34.327Z,101352.66
2023-05-19T16:21:47.366Z,101351.87
2023-05-19T16:24:00.044Z,101346.76
2023-05-19T16:26:12.671Z,101347.05
2023-05-19T16:28:25.434Z,101344.87
2023-05-19T16:30:38.061Z,101346.89
2023-05-19T16:32:50.750Z,101346.38
2023-05-19T16:35:03.696Z,101348.24
2023-05-19T16:37:16.465Z,101348.48
2023-05-19T16:39:29.101Z,101348.52
2023-05-19T16:41:41.752Z,101346.00
2023-05-19T16:43:54.327Z,101347.61
2023-05-19T16:46:07.088Z,101343.45
2023-05-19T16:48:19.740Z,101342.16
2023-05-19T16:50:32.555Z,101340.96
2023-05-19T16:52:45.215Z,101338.00
2023-05-19T16:54:57.808Z,101338.15
2023-05-19T16:57:10.485Z,101340.30
2023-05-19T16:59:23.124Z,101345.50
2023-05-19T17:01:35.875Z,101345.13
2023-05-19T17:03:48.616Z,101345.51
2023-05-19T17:06:01.551Z,101346.52
2023-05-19T17:08:14.173Z,101344.02
2023-05-19T17:10:26.843Z,101347.88
2023-05-19T17:12:39.407Z,101347.55
2023-05-19T17:14:52.183Z,101343.05
2023-05-19T17:17:04.972Z,101347.06
2023-05-19T17:19:17.721Z,101347.39
2023-05-19T17:21:31.420Z,101349.05
2023-05-19T17:23:43.982Z,101352.58
2023-05-19T17:25:56.653Z,101352.16
2023-05-19T17:28:09.412Z,101353.06
2023-05-19T17:30:22.176Z,101351.95
2023-05-19T17:32:38.416Z,101354.31
2023-05-19T17:34:51.492Z,101357.16
2023-05-19T17:37:04.266Z,101359.10
2023-05-19T17:39:17.111Z,101362.13
2023-05-19T17:41:29.724Z,101361.53
2023-05-19T17:43:42.837Z,101362.02
2023-05-19T17:45:55.609Z,101364.63
2023-05-19T17:48:08.287Z,101364.36
2023-05-19T17:50:20.980Z,101364.27
2023-05-19T17:52:34.184Z,101365.58
2023-05-19T17:54:47.323Z,101368.98
2023-05-19T17:57:03.360Z,101370.73
2023-05-19T17:59:16.180Z,101370.04
2023-05-19T18:01:29.103Z,101367.34
2023-05-19T18:03:43.466Z,101368.91
2023-05-19T18:05:56.648Z,101364.95
2023-05-19T18:08:09.989Z,101365.78
2023-05-19T18:10:25.740Z,101365.14
2023-05-19T18:12:38.524Z,101362.62
2023-05-19T18:14:51.078Z,101354.91
2023-05-19T18:17:04.276Z,101352.77
2023-05-19T18:19:16.919Z,101350.67
2023-05-19T18:21:29.572Z,101350.42
2023-05-19T18:23:42.252Z,101354.97
2023-05-19T18:25:54.886Z,101359.63
2023-05-19T18:28:07.945Z,101359.30
2023-05-19T18:30:21.401Z,101360.53
2023-05-19T18:32:34.187Z,101355.73
2023-05-19T18:34:46.803Z,101356.08
2023-05-19T18:36:59.407Z,101352.90
2023-05-19T18:39:12.048Z,101352.30
2023-05-19T18:41:25.032Z,101351.65
2023-05-19T18:43:37.728Z,101351.36
2023-05-19T18:45:50.314Z,101351.52
2023-05-19T18:48:02.980Z,101350.04
2023-05-19T18:50:17.772Z,101353.09
2023-05-19T18:52:31.336Z,101358.37
2023-05-19T18:54:45.884Z,101363.23
2023-05-19T18:56:58.962Z,101367.75
2023-05-19T18:59:11.571Z,101370.98
2023-05-19T19:01:24.484Z,101373.61
2023-05-19T19:03:37.374Z,101374.14
2023-05-19T19:05:57.767Z,101372.92
2023-05-19T19:08:10.499Z,101376.48
2023-05-19T19:10:23.263Z,101377.92
2023-05-19T19:12:35.946Z,101381.96
2023-05-19T19:14:48.647Z,101380.81
2023-05-19T19:17:01.288Z,101383.94
2023-05-19T19:19:13.957Z,101386.31
2023-05-19T19:21:26.678Z,101385.30
2023-05-19T19:23:39.292Z,101386.40
2023-05-19T19:25:52.001Z,101390.13
2023-05-19T19:28:04.716Z,101390.89
2023-05-19T19:30:17.599Z,101389.48
2023-05-19T19:32:31.776Z,101390.79
2023-05-19T19:34:45.109Z,101391.27
2023-05-19T19:36:57.678Z,101393.59
2023-05-19T19:39:10.265Z,101400.83
2023-05-19T19:41:23.043Z,101400.64
2023-05-19T19:43:35.712Z,101396.91
2023-05-19T19:45:48.364Z,101396.39
2023-05-19T19:48:01.651Z,101395.69
2023-05-19T19:50:14.500Z,101396.07
2023-05-19T19:52:27.043Z,101392.88
2023-05-19T19:54:39.609Z,101390.55
2023-05-19T19:56:52.206Z,101394.25
2023-05-19T19:59:04.969Z,101392.94
2023-05-19T20:01:20.278Z,101389.60
2023-05-19T20:03:33.681Z,101389.64
2023-05-19T20:05:46.658Z,101393.45
2023-05-19T20:07:59.366Z,101394.94
2023-05-19T20:10:12.166Z,101402.04
2023-05-19T20:12:24.880Z,101402.05
2023-05-19T20:14:37.559Z,101403.95
2023-05-19T20:16:50.403Z,101405.05
2023-05-19T20:19:03.240Z,101405.44
2023-05-19T20:21:16.036Z,101408.83
2023-05-19T20:23:28.591Z,101404.85
2023-05-19T20:25:51.035Z,101405.98
2023-05-19T20:28:07.990Z,101403.61
2023-05-19T20:30:20.761Z,101401.78
2023-05-19T20:32:33.460Z,101403.89
2023-05-19T20:34:46.515Z,101404.02
2023-05-19T20:36:59.249Z,101403.84
2023-05-19T20:39:11.860Z,101407.75
2023-05-19T20:41:24.415Z,101409.61
2023-05-19T20:43:37.056Z,101410.73
2023-05-19T20:45:49.966Z,101410.88
2023-05-19T20:48:03.764Z,101410.67
2023-05-19T20:50:16.518Z,101407.89
2023-05-19T20:52:29.085Z,101406.08
2023-05-19T20:54:41.971Z,101403.25
2023-05-19T20:56:54.684Z,101402.77
2023-05-19T20:59:07.249Z,101399.48
2023-05-19T21:01:19.923Z,101397.52
2023-05-19T21:03:32.594Z,101399.34
2023-05-19T21:05:45.127Z,101396.54
2023-05-19T21:07:57.845Z,101398.17
2023-05-19T21:10:12.392Z,101395.25
2023-05-19T21:12:25.311Z,101391.31
2023-05-19T21:14:37.979Z,101395.98
2023-05-19T21:16:54.134Z,101394.10
2023-05-19T21:19:07.033Z,101389.27
2023-05-19T21:21:19.661Z,101391.89
2023-05-19T21:23:32.252Z,101392.65
2023-05-19T21:25:45.495Z,101393.92
2023-05-19T21:27:58.374Z,101393.88
2023-05-19T21:30:11.489Z,101392.79
2023-05-19T21:36:12.015Z,101396.18
2023-05-19T21:38:24.953Z,101394.42
2023-05-19T21:40:37.793Z,101392.86
2023-05-19T21:42:50.496Z,101393.73
2023-05-19T21:45:03.232Z,101392.86
2023-05-19T21:47:16.053Z,101389.63
2023-05-19T21:49:28.597Z,101392.56
2023-05-19T21:51:41.220Z,101390.98
2023-05-19T21:53:53.864Z,101389.17
2023-05-19T21:56:06.548Z,101390.30
2023-05-19T21:58:19.297Z,101389.73
2023-05-19T22:00:32.003Z,101383.91
2023-05-19T22:02:45.045Z,101385.18
2023-05-19T22:04:57.697Z,101382.63
2023-05-19T22:07:10.437Z,101384.05
2023-05-19T22:09:23.218Z,101385.84
2023-05-19T22:11:35.886Z,101384.38
2023-05-19T22:13:48.470Z,101384.88
2023-05-19T22:16:01.327Z,101378.08
2023-05-19T22:18:13.963Z,101378.11
2023-05-19T22:20:26.565Z,101379.92
2023-05-19T22:22:39.131Z,101378.84
2023-05-19T22:24:51.792Z,101380.03
2023-05-19T22:27:07.613Z,101378.56
2023-05-19T22:29:20.816Z,101373.70
2023-05-19T22:31:33.417Z,101370.15
2023-05-19T22:33:46.181Z,101368.92
2023-05-19T22:35:58.753Z,101368.73
2023-05-19T22:38:11.845Z,101364.11
2023-05-19T22:40:24.754Z,101359.41
2023-05-19T22:42:37.350Z,101360.53
2023-05-19T22:44:49.925Z,101357.17
2023-05-19T22:47:02.512Z,101354.80
2023-05-19T22:49:15.094Z,101353.58
2023-05-19T22:51:27.697Z,101356.27
2023-05-19T22:53:42.469Z,101360.88
2023-05-19T22:55:54.998Z,101358.19
2023-05-19T22:58:07.610Z,101358.52
2023-05-19T23:00:21.003Z,101359.03
2023-05-19T23:02:33.854Z,101357.13
2023-05-19T23:04:46.566Z,101358.36
2023-05-19T23:06:59.535Z,101360.05
2023-05-19T23:09:12.212Z,101365.15
2023-05-19T23:11:24.736Z,101367.29
2023-05-19T23:13:37.291Z,101368.96
2023-05-19T23:15:49.889Z,101366.48
2023-05-19T23:18:06.969Z,101363.09
2023-05-19T23:20:19.603Z,101366.38
2023-05-19T23:22:32.128Z,101367.76
2023-05-19T23:24:44.773Z,101360.21
2023-05-19T23:26:57.382Z,101358.77
2023-05-19T23:29:14.712Z,101361.56
2023-05-19T23:31:27.275Z,101358.39
2023-05-19T23:33:39.887Z,101356.83
2023-05-19T23:35:54.260Z,101355.27
2023-05-19T23:38:06.812Z,101354.95
2023-05-19T23:40:19.398Z,101355.76
2023-05-19T23:42:32.033Z,101351.64
2023-05-19T23:44:44.596Z,101350.67
2023-05-19T23:46:57.158Z,101353.52
2023-05-19T23:49:09.855Z,101352.43
2023-05-19T23:51:22.392Z,101352.58
2023-05-19T23:53:34.989Z,101349.14
2023-05-19T23:55:47.506Z,101349.75
2023-05-19T23:58:00.138Z,101349.27
